Extreme weather reports worldwide

Thunderstorm

Station
 
Location
 
Name
 
Wind
Knots
Gust
Knots
Vis
SM
Temp/Dew
C
Baro
inHg
METAR
 
LED ULLI St. Petersburg, RU Pulkovo Airport 19 33 2.73 16/13 29.59 ULLI 011430Z 24010G17MPS 4400 2000E R28R/2000D TSRA BKN015CB OVC040 16/13 Q1002 RESHRA R28L/290550 R28R/290050 NOSIG
LJU LJLJ Ljubljana, SI Ljubljana Jože Pučnik Airport 17 28 6.21 17/16 29.73 LJLJ 011430Z 30017G28KT 9999 -TSRA FEW030CB FEW040 BKN050 17/16 Q1007 WS ALL RWY TEMPO TSRA
KMRH Beaufort, US Michael J. Smith Field 15 22 2 25/23 29.90 KMRH 011440Z AUTO 18015G22KT 2SM -TSRA BR FEW008 BKN017 OVC041 26/24 A2990 RMK AO2 LTG DSNT SE AND S RAE02B36 TSB33 P0007 T02560239 $
FKN KFKN Franklin, US Franklin Regional Airport 12 17 10 22/22 29.88 KFKN 011435Z AUTO 36012G17KT 10SM -TSRA SCT008 BKN012 OVC047 23/22 A2988 RMK AO2 LTG DSNT ALQS T02260223
MVR FKKL Maroua, CM Salak Airport 5 17 6.21 30/24 29.94 FKKL 011400Z VRB05G17KT 9999 TS BKN025 FEW030CB 30/24 Q1014

Station
 
Location
 
Name
 
Wind
Knots
Gust
Knots
Vis
SM
Temp/Dew
C
Baro
inHg
METAR
 
DUC KDUC Duncan, US Halliburton Field 9 14 10 24/19 30.12 KDUC 011435Z AUTO 07009G14KT 10SM VCTS SCT042 BKN050 OVC065 24/19 A3012 RMK AO2 LTG DSNT ALQDS T02420195
SFS RPLB Olongapo City, PH Subic Bay International Airport 21 6.21 29/26 29.73 RPLB 011400Z 22021KT 9999 TS FEW017CB BKN018 OVC080 29/26 Q1007 RESHRA RMK A2974 CB N,W WITH OCNL LTG
LIMK 17 6.21 17/15 29.73 LIMK 011416Z 04017KT 9999 VCTS SCT020 17/15 Q1007 RETS RMK BKN VAL FOSCHIA VIS MIN 9999
KSF EDVK Kassel, DE Kassel-Calden Airport 16 6.21 16/12 29.79 EDVK 011420Z 31016KT 9999 TSRA FEW028CB SCT043 16/12 Q1009
VBS LIPO Montichiari (BS), IT Brescia Airport 11 6.21 23/19 29.68 LIPO 011420Z AUTO 36011KT 320V030 9999 TS BKN032/// 23/19 Q1005
SOB LHSM Sármellék, HU Hévíz–Balaton Airport 11 6.21 24/20 29.68 LHSM 011415Z AUTO 32011KT 270V360 9999 VCTS FEW024 SCT029 BKN043 //////CB 24/20 Q1005 NOSIG
LIPL Ghedi, IT Ghedi Air Base 10 4.97 23/21 29.65 LIPL 011355Z 05010KT 8000 VCTS FEW025CB BKN040 23/21 Q1004 RETS RMK BKN VIS MIN 8000 WIND THR31 05010KT WIND THR13 06009KT BLU
KKJ RJFR Kitakyushu, JP Kitakyushu Airport 10 6.21 27/26 29.59 RJFR 011400Z 30010KT 9999 -TSRA FEW010 BKN020 FEW020CB BKN070 27/26 Q1002
AHB OEAB Abha, SA Abha Regional Airport 9 6.21 22/18 30.15 OEAB 011400Z 15009KT 9999 TS SCT020 FEW022CB 22/18 Q1021 NOSIG
DKK KDKK Dunkirk, US Chautauqua County-Dunkirk Airport 9 10 19/16 29.85 KDKK 011422Z AUTO 33009KT 10SM VCTS FEW014 SCT021 BKN050 19/17 A2985 RMK AO2 LTG DSNT S AND SW RAE01 P0000 T01940167 $
KGTB Fort Drum, US Wheeler Sack Army Air Field 9 8 15/12 29.82 KGTB 011431Z 15009KT 8SM -DZ VCTS FEW004 FEW012 BKN042 OVC055 15/12 A2982 RMK AO2A DZE1358DZB30 SLP098
KCGC Crystal River, US Crystal River Airport 8 30/25 30.06 KCGC 011435Z AUTO 25008KT 220V280 VCTS SCT023 SCT038 BKN070 30/25 A3006 RMK AO2 LTG DSNT W THRU NE
BGY LIME Bergamo, IT Il Caravaggio International Airport 8 2.8 16/16 29.70 LIME 011420Z 04008KT 360V070 4500 TSRA SCT015CB BKN030 16/16 Q1006 NOSIG
IVL EFIV Ivalo, FI Ivalo Airport 8 6.21 17/12 29.35 EFIV 011420Z AUTO 17008KT 140V200 9999 VCTS FEW035 //////CB 17/12 Q0994
KCQB Chandler, US Chandler Regional Airport 7 10 22/21 30.15 KCQB 011435Z AUTO 25007KT 10SM VCTS OVC007 23/22 A3015 RMK AO2 LTG DSNT S T02280219
KGVQ Batavia, US Genesee County Airport 7 2.5 17/16 29.84 KGVQ 011439Z AUTO 25007KT 2 1/2SM VCTS RA BR FEW013 BKN025 OVC070 17/16 A2984 RMK AO2 VIS 1 1/4V5 LTG DSNT S AND W TSB19 P0020
HOT KHOT Hot Springs, US Memorial Field 7 10 28/22 30.06 KHOT 011431Z AUTO 08007KT 10SM VCTS SCT042 BKN060 BKN080 28/23 A3006 RMK AO2 LTG DSNT N AND NW T02830228
OSI LDOS Osijek, HR Osijek Airport 7 6.21 30/18 29.65 LDOS 011430Z 06007KT 9999 VCTS FEW040CB SCT045 30/18 Q1004
KAJ EFKI Kajaani, FI Kajaani Airport 7 5.59 16/14 29.44 EFKI 011420Z 13007KT 9000 -SHRA VCTS FEW012 BKN039CB 16/14 Q0997
MBX LJMB SI Maribor Airport 7 6.21 19/17 29.73 LJMB 011430Z 05007KT 010V070 9999 VCTS FEW007 SCT030CB BKN045 19/17 Q1007 RETSRA
KSRE Seminole, US Seminole Municipal Airport 7 10 24/21 30.12 KSRE 011435Z AUTO 32007KT 10SM VCTS BKN055 BKN070 24/21 A3012 RMK AO2 LTG DSNT SW-NW
KLUV 7 10 21/20 30.21 KLUV 011435Z AUTO 09007KT 10SM -TSRA SCT075 BKN100 BKN120 21/20 A3021 RMK AO2 LTG DSNT ALQDS
KMX OEKM SA King Khaled Air Base 6 6.21 23/20 30.15 OEKM 011400Z 21006KT 9999 TS BKN022 FEW025CB 23/20 Q1021 RERA NOSIG
OCF KOCF Ocala, US Ocala International Airport - Jim Taylor Field 6 2.5 25/25 30.08 KOCF 011434Z 32006KT 2 1/2SM +TSRA BR SCT009 BKN030 OVC048 25/25 A3008 RMK AO2 VIS 1 1/4V5 LTG DSNT SW-NW TSB09RAB02 P0046 $
DSV KDSV Dansville, US Dansville Municipal Airport 6 10 17/16 29.85 KDSV 011423Z AUTO 16006KT 10SM VCTS -RA FEW055 FEW070 OVC085 17/16 A2985 RMK AO2 LTG DSNT E AND SW AND W TSE17 P0008 T01720161
NTU KNTU Virginia Beach, US Oceana Naval Air Station 6 3 25/22 29.87 KNTU 011422Z 08006KT 3SM TSRA FEW013 BKN045CB OVC100 26/23 A2987 RMK AO2 VIS 2 1/2 RWY 5R TSB16B17 FRQ LTGICCCCG W-SW TS W-SW MOV E T1 SET P0007 T02560228
KEV EFHA Halli / Kuorevesi, FI Halli Airport 6 6.21 17/16 29.44 EFHA 011420Z AUTO 19006KT 9999 -SHRA VCTS BKN028 //////CB 17/16 Q0997
LHPA Pápa, HU Pápa Air Base 6 3.11 21/19 29.68 LHPA 011415Z 30006KT 5000 -TSRA FEW027CB SCT030TCU BKN033 21/19 Q1005 NOSIG RMK WHT
JFN KHZY Ashtabula, US Northeast Ohio Regional Airport 6 10 21/17 29.88 KHZY 011426Z AUTO 26006KT 10SM TS FEW020 SCT075 22/17 A2988 RMK AO2 TSB20 T02170172
TUP KTUP Tupelo, US Tupelo Regional Airport 5 10 26/22 30.03 KTUP 011440Z 32005KT 10SM VCTS BKN028 OVC033 26/22 A3003 RMK AO2 LTG DSNT E-SW T02610222 $
KCPK Norfolk, US Chesapeake Regional Airport 5 0.75 22/21 29.86 KCPK 011435Z AUTO 05005KT 3/4SM +TSRA OVC008 23/22 A2986 RMK AO2 LTG DSNT ALQS T02250217
KNFE Fentress, US Fentress Naval Auxiliary Landing Field 5 3 23/22 29.87 KNFE 011423Z AUTO 05005KT 3SM TSRA BR BKN014 BKN025 OVC085 24/23 A2987 RMK AO2 TSB10B16 P0007 T02390228
SNK KSNK Snyder, US Winston Field 5 10 22/21 30.19 KSNK 011437Z AUTO 04005KT 10SM VCTS BKN110 22/21 A3019 RMK AO2 LTG DSNT W AND NW
KLU LOWK Klagenfurt am Wörthersee, AT Klagenfurt Airport 5 6.21 18/17 29.76 LOWK 011420Z 20005KT 170V240 9999 -TSRA FEW006 SCT045 FEW050CB BKN080 18/17 Q1008 RESHRA TEMPO NSW
KX60 5 10 24/24 30.05 KX60 011435Z AUTO 20005KT 10SM VCTS SCT050 BKN070 OVC120 25/24 A3005 RMK AO2 LTG DSNT SE THRU W T02480240
LIN LIML Milan, IT Milano Linate Airport 5 3.11 25/18 29.68 LIML 011420Z VRB05KT 5000 TSRA FEW020CB BKN030 25/18 Q1005 NOSIG
DVO RPMD Davao City, PH Francisco Bangoy International Airport 5 6.21 29/24 29.79 RPMD 011400Z 21005KT 160V240 9999 TS SCT015CB BKN090 OVC260 29/24 Q1009 RMK A2980 CB NE-E,S-WSW WITH ONCL LTG
OSR LKMT Ostrava, CZ Ostrava Leos Janáček Airport 5 3.11 21/18 29.65 LKMT 011430Z 02005KT 5000 SHRA VCTS FEW013 SCT030CB 21/18 Q1004 TEMPO 3000 TSRA
LIPS Istrana, IT Istrana Air Base 5 6.21 22/19 29.62 LIPS 011355Z 01005KT 9999 TS FEW020CB BKN080 22/19 Q1003 RMK BKN VIS MIN 9999 WIND THR26 14006KT WIND THR08 35004KT BLK BLU
SNL KSNL Shawnee, US Shawnee Regional Airport 5 10 21/20 30.16 KSNL 011435Z AUTO 30005KT 10SM TSRA SCT012 SCT036 OVC060 22/21 A3016 RMK AO2 LTG DSNT NE SE AND SW P0002 T02170205
KIP KCWC Wichita Falls, US Kickapoo Downtown Airport 4 7 24/23 30.10 KCWC 011435Z AUTO 07004KT 7SM VCTSRA SCT025 SCT032 BKN038 25/23 A3010 RMK AO2 LTG DSNT ALQDS P0001 T02450233
KJA UNKL Krasnoyarsk, RU Yemelyanovo Airport 4 6.21 16/16 29.82 UNKL 011430Z 31002MPS 9999 -TSRA SCT039CB 16/16 Q1010 R29/290055 NOSIG RMK QFE732
ART KART Watertown, US Watertown International Airport 4 4 16/15 29.82 KART 011440Z AUTO 06004KT 4SM VCTS -RA BR FEW015 BKN050 OVC095 16/15 A2982 RMK AO2 P0029 T01610150
NAJ UBBN Nakhchivan, AZ Nakhchivan Airport 4 6.21 32/10 29.79 UBBN 011430Z 06004KT 9999 VCTS SCT040CB BKN093 32/10 Q1009 R14R/CLRD// NOSIG RMK MT OP QFE682
KAKQ Wakefield, US Wakefield Municipal Airport 4 3 23/22 29.87 KAKQ 011435Z AUTO 12004KT 3SM VCTS -RA BR BKN085 OVC110 23/23 A2987 RMK AO2 LTG DSNT SE AND S TSB14E29 P0004 T02330228 $